Flemalle-Haute, Belgium
Current Conditions -  °F | °C
As of 7:20 PM on Wednesday 28 Jan 2015 (Local Time) from EBLG Reporting Station
Broken Clouds Broken Clouds  
Wind Chill: 28°   Ceiling: 1800
Heat Index: 36°   Visibility: 4mi
Dew Point: 34°   Wind: 12mph
Humidity: 93%   Direction: 270°W
Pressure: 29.53"   Gusts: NA
Location:  50.6°N, 5.44°E
Report Text: EBLG 281820Z 27010KT 7000 FEW010 BKN018 02/01 Q1000 TEMPO 4000 SHRA BKN010
Loading
Personal Weather Stations






























Interactive Weather Map New forecast layout! Learn more

10-Day Weather Forecast

Advertisements
Track Severe Weather on mobile